Casitas Springs, California
Current Conditions -  °F | °C
As of 5:51 AM on Friday 31 Oct 2014 (Local Time) from KOXR Reporting Station
Overcast Overcast  
Wind Chill: 59°   Ceiling: 2700
Heat Index: 59°   Visibility: 10mi
Dew Point: 51°   Wind: 3mph
Humidity: 75%   Direction: 50°NE
Pressure: 29.94"   Gusts: NA
Location:  34.3488°N, 119.33°W
Report Text: KOXR 311251Z AUTO 05003KT 10SM OVC027 15/11 A2994 RMK AO2 SLP138 T01500106
Loading
Personal Weather Stations






























Interactive Weather Map
Tropical Storm Tracking
New forecast layout! Learn more

10-Day Weather Forecast

Advertisements
Track Severe Weather on mobile